Skip Navigation Links
NOAA logo - Click to go to the NOAA homepage
NOAA's National Weather Service
Alaska Aviation Weather Unit
  NWS logo - Click to go to the NWS homepage
Left Navbar Graphic     15 AKDT = 23 GMT

   
NOAA is celebrating 200 years of science, service, and stewardship. Visit the NOAA 200th celebration Web site to learn more.
USA.gov is the U.S. Government's official Web portal to all Federal, state and local government Web resources and services.
Facebook
NWS on Facebook

Important Change Regarding the AAWU Web Presence

 

Over the last several months, the AAWU has been working to navigate its webpages to a nationally supported server. Security, as well as other needs, have necessitated the change.  We have been given an extension for the site changeover while we diligently work at addressing feedback received. As of July 14, 2017, aawu.arh.noaa.gov will be discontinued. The new AAWU web address is weather.gov/aawu. It is now live and will run in-parallel with the old site until it is discontinued on July 14, 2017. Please continue to send any feedback or questions regarding the new webpages to nws.ar.aawu.webauthors@noaa.gov.  Thank you for your patience during this time of transition.
AAWU Home :: Display TAF Add Bookmark
METAR PAKP 191756Z AUTO 20005KT 9SM CLR M26/M28 A2927 RMK AO2 SLP989
     T12561278 11183 21256 58002 FZRANO=

SPECI PAKP 191806Z AUTO 21005KT 1 3/4SM -SN CLR M25/M28 A2927 RMK AO2
     VIS 1/2V5 SNB02 P0000 FZRANO=

SPECI PAKP 191812Z AUTO 20007KT 4SM -SN CLR M25/M28 A2927 RMK AO2
 SNB02 P0000 FZRANO=

METAR PAKP 191856Z AUTO 19004KT 6SM HZ CLR M23/M26 A2927 RMK AO2
     SNB02E18 SLP988 P0000 T12331261 FZRANO=

METAR PAKP 191956Z AUTO 17006KT 10SM CLR M19/M22 A2927 RMK AO2 SLP984
     T11941217 FZRANO=

METAR PAKP 192056Z AUTO 20006KT 10SM CLR M18/M21 A2927 RMK AO2 SLP983
     60000 T11781211 53001 FZRANO=

METAR PAKP 192156Z AUTO 18007KT 9SM CLR M17/M21 A2927 RMK AO2 SNB08E18
     SLP984 P0000 T11721211 FZRANO=

METAR PAKP 192256Z AUTO 18007KT 10SM CLR M16/M21 A2927 RMK AO2
 SLP980 T11611206 FZRANO=


NOAA's National Weather Service
Alaska Aviation Weather Unit
6930 Sand Lake Road
Anchorage, AK 99502-1845
Disclaimer
Credits
Glossary
Privacy Policy
About Us
Career Opportunities
Contact AAWU Internet Services Site last modified: April, 17th 2012